Rockvale, TN (37153)

12:55 AM CDT on July 27, 2016 (GMT -0500)
Marc & Earlene's House | | Change Station

Elev 712 ft 35.72 °N, 86.48 °W | Updated 2 minutes ago

Mostly Cloudy
Mostly Cloudy
73.6 °F
Feels Like 70 °F
N
0.0
Wind Variable Wind from WSW
Gusts 0.0 mph

Today
High -- | Low -- °F
--% Chance of Precip.
Yesterday
High -- | Low -- °F
Precip. -- in
Pressure 30.01 in
Visibility 10.0 miles
Clouds Mostly Cloudy 7000 ft
Heat Index 70 °F
Dew Point 72 °F
Humidity 95%
Rainfall 0.00 in
Snow Depth Not available.
5:50 AM 7:54 PM
Waning Gibbous, 47% visible
METAR KMQY 270456Z AUTO 00000KT 10SM BKN070 26/23 A3000 RMK AO2 T02610227 SLP161 $
Pressure 30.01 in
Visibility 10.0 miles
Clouds Mostly Cloudy 7000 ft
Heat Index 70 °F
Dew Point 72 °F
Humidity 95%
Rainfall 0.00 in
Snow Depth Not available.
5:50 AM 7:54 PM
Waning Gibbous, 47% visible
METAR KMQY 270456Z AUTO 00000KT 10SM BKN070 26/23 A3000 RMK AO2 T02610227 SLP161 $

10-Day Weather Forecast

Almanac

Astronomy

Jul. 27, 2016 Rise Set
Actual Time
Civil Twilight
Nautical Twilight
Astronomical Twilight
Moon
Length of Visible Light
Length of Day
Tomorrow will be .
, % of the Moon is Illuminated

Today's Extremes

State Highs State Lows

Community

WunderPhotos

Upload Photos

1,927,818 photos uploaded!

WunderBlog® & News

Nearby

Air Quality

  Air Quality AQ Index Pollutant
Not available.

Snow Depth

Station Depth Elevation

Earthquake Activity

City Distance Mag. Time & Date
Minimum magnitude displayed is 2.5.

Coastal Water Temperatures

Place Temperature

Stations

Nearby Weather Stations

Station Location Temp. Windchill Dew Point Humidity Wind Precip. Elev Updated Type
                   

Watches & Warnings

There are currently no watches in effect.